sensor_id;sensor_type;location;lat;lon;timestamp;pressure;altitude;pressure_sealevel;temperature;humidity
7376;BME280;3728;42.266;24.944;2023-07-16T00:00:21;99701.28;;;27.09;68.51
7376;BME280;3728;42.266;24.944;2023-07-16T00:02:52;99703.50;;;27.18;68.47
7376;BME280;3728;42.266;24.944;2023-07-16T00:05:20;99701.84;;;27.24;67.53
7376;BME280;3728;42.266;24.944;2023-07-16T00:07:48;99703.88;;;27.16;67.93
7376;BME280;3728;42.266;24.944;2023-07-16T00:10:15;99702.50;;;27.31;67.84
7376;BME280;3728;42.266;24.944;2023-07-16T00:12:43;99698.91;;;27.14;68.41
7376;BME280;3728;42.266;24.944;2023-07-16T00:15:10;99700.03;;;27.17;68.21
7376;BME280;3728;42.266;24.944;2023-07-16T00:17:38;99704.09;;;27.02;69.15
7376;BME280;3728;42.266;24.944;2023-07-16T00:20:06;99698.97;;;27.38;67.80
7376;BME280;3728;42.266;24.944;2023-07-16T00:22:35;99708.03;;;27.21;67.66
7376;BME280;3728;42.266;24.944;2023-07-16T00:25:06;99702.94;;;27.30;67.24
7376;BME280;3728;42.266;24.944;2023-07-16T00:27:34;99707.41;;;27.13;68.09
7376;BME280;3728;42.266;24.944;2023-07-16T00:30:02;99703.25;;;27.08;68.75
7376;BME280;3728;42.266;24.944;2023-07-16T00:32:31;99708.66;;;27.05;68.72
7376;BME280;3728;42.266;24.944;2023-07-16T00:34:58;99713.00;;;26.95;69.43
7376;BME280;3728;42.266;24.944;2023-07-16T00:37:27;99707.06;;;26.81;70.34
7376;BME280;3728;42.266;24.944;2023-07-16T00:39:54;99707.13;;;26.74;70.65
7376;BME280;3728;42.266;24.944;2023-07-16T00:42:22;99710.25;;;26.69;71.37
7376;BME280;3728;42.266;24.944;2023-07-16T00:44:50;99718.78;;;26.64;71.62
7376;BME280;3728;42.266;24.944;2023-07-16T00:47:18;99703.38;;;26.68;71.27
7376;BME280;3728;42.266;24.944;2023-07-16T00:49:46;99702.94;;;26.73;70.59
7376;BME280;3728;42.266;24.944;2023-07-16T00:52:17;99705.19;;;26.74;70.35
7376;BME280;3728;42.266;24.944;2023-07-16T00:54:45;99708.03;;;26.64;70.52
7376;BME280;3728;42.266;24.944;2023-07-16T00:57:13;99701.16;;;26.59;71.20
7376;BME280;3728;42.266;24.944;2023-07-16T00:59:42;99704.78;;;26.45;71.27
7376;BME280;3728;42.266;24.944;2023-07-16T01:02:10;99699.47;;;26.42;71.64
7376;BME280;3728;42.266;24.944;2023-07-16T01:04:37;99702.16;;;26.38;71.98
7376;BME280;3728;42.266;24.944;2023-07-16T01:07:08;99706.41;;;26.39;72.08
7376;BME280;3728;42.266;24.944;2023-07-16T01:09:41;99704.16;;;26.31;72.44
7376;BME280;3728;42.266;24.944;2023-07-16T01:12:12;99706.06;;;26.34;71.90
7376;BME280;3728;42.266;24.944;2023-07-16T01:14:41;99699.84;;;26.40;71.80
7376;BME280;3728;42.266;24.944;2023-07-16T01:17:08;99694.47;;;26.40;72.37
7376;BME280;3728;42.266;24.944;2023-07-16T01:19:36;99690.28;;;26.39;72.03
7376;BME280;3728;42.266;24.944;2023-07-16T01:31:17;99703.94;;;26.18;73.42
7376;BME280;3728;42.266;24.944;2023-07-16T01:33:45;99705.44;;;26.19;73.74
7376;BME280;3728;42.266;24.944;2023-07-16T01:36:13;99702.81;;;26.16;73.55
7376;BME280;3728;42.266;24.944;2023-07-16T01:38:42;99703.25;;;26.07;74.23
7376;BME280;3728;42.266;24.944;2023-07-16T01:41:10;99701.72;;;26.06;74.32
7376;BME280;3728;42.266;24.944;2023-07-16T01:43:38;99704.44;;;26.03;74.72
7376;BME280;3728;42.266;24.944;2023-07-16T01:46:06;99706.47;;;25.92;75.70
7376;BME280;3728;42.266;24.944;2023-07-16T01:48:35;99708.72;;;25.97;75.26
7376;BME280;3728;42.266;24.944;2023-07-16T01:51:04;99707.66;;;25.87;75.94
7376;BME280;3728;42.266;24.944;2023-07-16T01:53:32;99711.19;;;25.80;76.37
7376;BME280;3728;42.266;24.944;2023-07-16T01:56:02;99716.13;;;25.82;76.80
7376;BME280;3728;42.266;24.944;2023-07-16T01:58:30;99711.25;;;25.73;78.12
7376;BME280;3728;42.266;24.944;2023-07-16T02:00:58;99711.69;;;25.65;77.36
7376;BME280;3728;42.266;24.944;2023-07-16T02:03:25;99702.13;;;25.64;77.91
7376;BME280;3728;42.266;24.944;2023-07-16T02:05:53;99712.97;;;25.50;78.25
7376;BME280;3728;42.266;24.944;2023-07-16T02:08:21;99707.56;;;25.53;78.54
7376;BME280;3728;42.266;24.944;2023-07-16T02:10:49;99712.50;;;25.58;78.69
7376;BME280;3728;42.266;24.944;2023-07-16T02:13:17;99712.91;;;25.57;78.79
7376;BME280;3728;42.266;24.944;2023-07-16T02:15:44;99715.59;;;25.57;77.94
7376;BME280;3728;42.266;24.944;2023-07-16T02:18:13;99711.84;;;25.37;77.95
7376;BME280;3728;42.266;24.944;2023-07-16T02:20:43;99715.41;;;25.23;78.71
7376;BME280;3728;42.266;24.944;2023-07-16T02:23:10;99718.50;;;25.18;79.80
7376;BME280;3728;42.266;24.944;2023-07-16T02:25:38;99716.63;;;25.15;80.74
7376;BME280;3728;42.266;24.944;2023-07-16T02:28:05;99719.63;;;25.24;81.34
7376;BME280;3728;42.266;24.944;2023-07-16T02:30:33;99717.31;;;25.23;81.93
7376;BME280;3728;42.266;24.944;2023-07-16T02:33:01;99719.94;;;25.30;81.03
7376;BME280;3728;42.266;24.944;2023-07-16T02:35:28;99717.75;;;25.18;82.98
7376;BME280;3728;42.266;24.944;2023-07-16T02:37:56;99728.81;;;25.23;83.96
7376;BME280;3728;42.266;24.944;2023-07-16T02:40:25;99723.81;;;25.25;84.26
7376;BME280;3728;42.266;24.944;2023-07-16T02:42:53;99727.78;;;24.99;85.60
7376;BME280;3728;42.266;24.944;2023-07-16T02:45:20;99731.25;;;25.03;85.68
7376;BME280;3728;42.266;24.944;2023-07-16T02:47:48;99730.09;;;25.01;85.88
7376;BME280;3728;42.266;24.944;2023-07-16T02:50:15;99738.50;;;24.99;85.98
7376;BME280;3728;42.266;24.944;2023-07-16T02:52:43;99739.28;;;25.00;86.26
7376;BME280;3728;42.266;24.944;2023-07-16T02:55:11;99741.59;;;24.94;86.51
7376;BME280;3728;42.266;24.944;2023-07-16T02:57:38;99743.88;;;24.99;85.78
7376;BME280;3728;42.266;24.944;2023-07-16T03:00:07;99741.97;;;25.03;83.13
7376;BME280;3728;42.266;24.944;2023-07-16T03:02:35;99739.66;;;25.05;83.16
7376;BME280;3728;42.266;24.944;2023-07-16T03:05:03;99749.97;;;25.07;83.71
7376;BME280;3728;42.266;24.944;2023-07-16T03:07:31;99738.50;;;24.99;84.21
7376;BME280;3728;42.266;24.944;2023-07-16T03:09:58;99740.09;;;24.93;84.68
7376;BME280;3728;42.266;24.944;2023-07-16T03:12:26;99743.50;;;25.01;84.48
7376;BME280;3728;42.266;24.944;2023-07-16T03:14:54;99751.53;;;24.97;84.71
7376;BME280;3728;42.266;24.944;2023-07-16T03:17:21;99747.34;;;24.96;85.52
7376;BME280;3728;42.266;24.944;2023-07-16T03:19:49;99745.81;;;24.95;85.99
7376;BME280;3728;42.266;24.944;2023-07-16T03:22:17;99753.09;;;24.98;86.28
7376;BME280;3728;42.266;24.944;2023-07-16T03:24:44;99753.09;;;24.95;85.76
7376;BME280;3728;42.266;24.944;2023-07-16T03:27:12;99749.63;;;24.98;83.48
7376;BME280;3728;42.266;24.944;2023-07-16T03:29:48;99751.53;;;24.97;83.66
7376;BME280;3728;42.266;24.944;2023-07-16T03:32:18;99746.19;;;24.97;84.03
7376;BME280;3728;42.266;24.944;2023-07-16T03:34:46;99746.22;;;24.90;84.71
7376;BME280;3728;42.266;24.944;2023-07-16T03:37:14;99747.38;;;24.89;84.59
7376;BME280;3728;42.266;24.944;2023-07-16T03:39:41;99753.16;;;24.84;85.39
7376;BME280;3728;42.266;24.944;2023-07-16T03:42:09;99751.94;;;24.96;83.14
7376;BME280;3728;42.266;24.944;2023-07-16T03:44:36;99749.19;;;25.10;82.51
7376;BME280;3728;42.266;24.944;2023-07-16T03:47:04;99758.78;;;25.07;83.35
7376;BME280;3728;42.266;24.944;2023-07-16T03:49:34;99756.13;;;25.00;83.65
7376;BME280;3728;42.266;24.944;2023-07-16T03:52:02;99765.66;;;25.12;84.37
7376;BME280;3728;42.266;24.944;2023-07-16T03:54:30;99757.59;;;25.12;82.28
7376;BME280;3728;42.266;24.944;2023-07-16T03:56:58;99760.97;;;25.27;81.49
7376;BME280;3728;42.266;24.944;2023-07-16T03:59:25;99766.59;;;25.50;80.79
7376;BME280;3728;42.266;24.944;2023-07-16T04:01:53;99767.53;;;25.19;82.28
7376;BME280;3728;42.266;24.944;2023-07-16T04:04:20;99767.19;;;25.09;83.03
7376;BME280;3728;42.266;24.944;2023-07-16T04:06:49;99775.94;;;25.24;82.72
7376;BME280;3728;42.266;24.944;2023-07-16T04:09:17;99772.88;;;25.19;82.90
7376;BME280;3728;42.266;24.944;2023-07-16T04:11:44;99775.22;;;25.09;83.82
7376;BME280;3728;42.266;24.944;2023-07-16T04:14:12;99782.72;;;25.43;81.04
7376;BME280;3728;42.266;24.944;2023-07-16T04:16:39;99775.72;;;25.59;81.75
7376;BME280;3728;42.266;24.944;2023-07-16T04:19:08;99779.69;;;25.34;81.62
7376;BME280;3728;42.266;24.944;2023-07-16T04:21:36;99777.47;;;25.84;78.90
7376;BME280;3728;42.266;24.944;2023-07-16T04:24:04;99783.72;;;26.21;76.76
7376;BME280;3728;42.266;24.944;2023-07-16T04:26:32;99790.50;;;25.85;78.86
7376;BME280;3728;42.266;24.944;2023-07-16T04:29:00;99778.06;;;25.57;81.49
7376;BME280;3728;42.266;24.944;2023-07-16T04:31:27;99787.28;;;26.01;78.42
7376;BME280;3728;42.266;24.944;2023-07-16T04:33:55;99795.88;;;26.29;76.74
7376;BME280;3728;42.266;24.944;2023-07-16T04:36:23;99793.22;;;25.78;78.87
7376;BME280;3728;42.266;24.944;2023-07-16T04:38:50;99797.63;;;25.51;80.86
7376;BME280;3728;42.266;24.944;2023-07-16T04:41:19;99796.78;;;25.61;82.01
7376;BME280;3728;42.266;24.944;2023-07-16T04:43:47;99788.88;;;25.36;83.35
7376;BME280;3728;42.266;24.944;2023-07-16T04:46:14;99789.97;;;25.49;83.92
7376;BME280;3728;42.266;24.944;2023-07-16T04:48:43;99796.59;;;25.89;80.49
7376;BME280;3728;42.266;24.944;2023-07-16T04:51:10;99803.88;;;25.89;80.64
7376;BME280;3728;42.266;24.944;2023-07-16T04:53:38;99808.25;;;25.65;82.54
7376;BME280;3728;42.266;24.944;2023-07-16T04:56:11;99797.47;;;25.72;83.45
7376;BME280;3728;42.266;24.944;2023-07-16T04:58:40;99806.34;;;25.69;83.78
7376;BME280;3728;42.266;24.944;2023-07-16T05:01:09;99807.69;;;25.91;83.38
7376;BME280;3728;42.266;24.944;2023-07-16T05:03:36;99807.63;;;25.98;82.14
7376;BME280;3728;42.266;24.944;2023-07-16T05:06:05;99811.69;;;26.61;78.61
7376;BME280;3728;42.266;24.944;2023-07-16T05:08:33;99812.00;;;26.67;76.12
7376;BME280;3728;42.266;24.944;2023-07-16T05:11:02;99813.75;;;26.46;76.43
7376;BME280;3728;42.266;24.944;2023-07-16T05:13:30;99813.13;;;26.69;76.99
7376;BME280;3728;42.266;24.944;2023-07-16T05:15:58;99813.34;;;26.52;77.30
7376;BME280;3728;42.266;24.944;2023-07-16T05:18:25;99811.38;;;26.15;78.80
7376;BME280;3728;42.266;24.944;2023-07-16T05:20:53;99817.56;;;26.05;77.74
7376;BME280;3728;42.266;24.944;2023-07-16T05:23:21;99819.63;;;26.72;75.92
7376;BME280;3728;42.266;24.944;2023-07-16T05:25:49;99822.53;;;26.54;76.15
7376;BME280;3728;42.266;24.944;2023-07-16T05:28:18;99826.06;;;26.44;74.98
7376;BME280;3728;42.266;24.944;2023-07-16T05:30:46;99823.09;;;26.72;71.39
7376;BME280;3728;42.266;24.944;2023-07-16T05:33:13;99825.38;;;26.74;72.87
7376;BME280;3728;42.266;24.944;2023-07-16T05:35:41;99820.84;;;26.67;72.55
7376;BME280;3728;42.266;24.944;2023-07-16T05:38:08;99827.50;;;26.93;68.87
7376;BME280;3728;42.266;24.944;2023-07-16T05:40:36;99831.53;;;27.08;69.17
7376;BME280;3728;42.266;24.944;2023-07-16T05:43:03;99829.59;;;27.42;65.92
7376;BME280;3728;42.266;24.944;2023-07-16T05:45:33;99835.56;;;27.23;66.86
7376;BME280;3728;42.266;24.944;2023-07-16T05:48:02;99837.19;;;27.17;66.89
7376;BME280;3728;42.266;24.944;2023-07-16T05:50:30;99838.59;;;27.25;67.32
7376;BME280;3728;42.266;24.944;2023-07-16T05:52:58;99842.31;;;27.38;67.04
7376;BME280;3728;42.266;24.944;2023-07-16T05:55:26;99839.22;;;27.40;66.84
7376;BME280;3728;42.266;24.944;2023-07-16T05:57:53;99843.38;;;27.44;65.90
7376;BME280;3728;42.266;24.944;2023-07-16T06:00:21;99844.72;;;27.59;65.88
7376;BME280;3728;42.266;24.944;2023-07-16T06:02:48;99847.03;;;27.84;64.83
7376;BME280;3728;42.266;24.944;2023-07-16T06:05:16;99839.72;;;27.85;65.22
7376;BME280;3728;42.266;24.944;2023-07-16T06:07:44;99848.34;;;28.03;61.87
7376;BME280;3728;42.266;24.944;2023-07-16T06:10:12;99850.50;;;28.34;61.84
7376;BME280;3728;42.266;24.944;2023-07-16T06:12:42;99853.75;;;28.45;60.96
7376;BME280;3728;42.266;24.944;2023-07-16T06:15:10;99839.81;;;28.74;57.81
7376;BME280;3728;42.266;24.944;2023-07-16T06:17:38;99846.63;;;29.37;55.17
7376;BME280;3728;42.266;24.944;2023-07-16T06:20:07;99843.75;;;29.28;55.05
7376;BME280;3728;42.266;24.944;2023-07-16T06:22:36;99834.41;;;29.33;54.93
7376;BME280;3728;42.266;24.944;2023-07-16T06:25:05;99841.78;;;29.84;52.34
7376;BME280;3728;42.266;24.944;2023-07-16T06:27:33;99845.28;;;29.65;53.13
7376;BME280;3728;42.266;24.944;2023-07-16T06:30:00;99840.41;;;30.08;52.13
7376;BME280;3728;42.266;24.944;2023-07-16T06:32:28;99842.81;;;30.51;50.68
7376;BME280;3728;42.266;24.944;2023-07-16T06:34:57;99835.34;;;29.94;53.35
7376;BME280;3728;42.266;24.944;2023-07-16T06:37:24;99835.16;;;30.01;51.52
7376;BME280;3728;42.266;24.944;2023-07-16T06:39:52;99844.25;;;29.75;51.78
7376;BME280;3728;42.266;24.944;2023-07-16T06:42:20;99838.03;;;29.94;52.01
7376;BME280;3728;42.266;24.944;2023-07-16T06:44:48;99831.13;;;29.93;50.96
7376;BME280;3728;42.266;24.944;2023-07-16T06:47:15;99829.44;;;29.99;50.09
7376;BME280;3728;42.266;24.944;2023-07-16T06:49:44;99819.94;;;29.75;51.89
7376;BME280;3728;42.266;24.944;2023-07-16T06:52:19;99819.53;;;30.25;51.58
7376;BME280;3728;42.266;24.944;2023-07-16T06:54:48;99813.31;;;30.12;53.04
7376;BME280;3728;42.266;24.944;2023-07-16T06:57:16;99814.16;;;30.54;50.37
7376;BME280;3728;42.266;24.944;2023-07-16T06:59:46;99815.19;;;31.01;49.74
7376;BME280;3728;42.266;24.944;2023-07-16T07:02:15;99820.09;;;30.77;50.00
7376;BME280;3728;42.266;24.944;2023-07-16T07:04:43;99815.78;;;30.51;48.12
7376;BME280;3728;42.266;24.944;2023-07-16T07:07:11;99818.28;;;30.58;47.04
7376;BME280;3728;42.266;24.944;2023-07-16T07:09:38;99816.72;;;30.73;46.97
7376;BME280;3728;42.266;24.944;2023-07-16T07:12:06;99818.59;;;30.48;48.32
7376;BME280;3728;42.266;24.944;2023-07-16T07:14:34;99817.53;;;30.58;47.60
7376;BME280;3728;42.266;24.944;2023-07-16T07:17:01;99820.94;;;30.45;48.82
7376;BME280;3728;42.266;24.944;2023-07-16T07:19:29;99823.19;;;31.04;48.60
7376;BME280;3728;42.266;24.944;2023-07-16T07:21:58;99817.91;;;31.01;47.45
7376;BME280;3728;42.266;24.944;2023-07-16T07:24:26;99813.69;;;31.13;47.35
7376;BME280;3728;42.266;24.944;2023-07-16T07:26:54;99811.00;;;31.25;47.46
7376;BME280;3728;42.266;24.944;2023-07-16T07:29:22;99810.41;;;31.46;46.41
7376;BME280;3728;42.266;24.944;2023-07-16T07:31:50;99818.69;;;31.27;47.12
7376;BME280;3728;42.266;24.944;2023-07-16T07:34:19;99808.28;;;31.38;45.72
7376;BME280;3728;42.266;24.944;2023-07-16T07:36:46;99813.25;;;31.01;47.68
7376;BME280;3728;42.266;24.944;2023-07-16T07:39:15;99814.03;;;31.02;47.50
7376;BME280;3728;42.266;24.944;2023-07-16T07:41:43;99806.13;;;31.33;46.01
7376;BME280;3728;42.266;24.944;2023-07-16T07:44:10;99809.94;;;31.48;46.92
7376;BME280;3728;42.266;24.944;2023-07-16T07:46:38;99805.50;;;31.41;47.18
7376;BME280;3728;42.266;24.944;2023-07-16T07:49:06;99809.47;;;32.00;45.92
7376;BME280;3728;42.266;24.944;2023-07-16T07:51:33;99811.19;;;31.94;45.73
7376;BME280;3728;42.266;24.944;2023-07-16T07:54:01;99808.59;;;32.37;44.27
7376;BME280;3728;42.266;24.944;2023-07-16T07:56:29;99805.22;;;32.11;45.90
7376;BME280;3728;42.266;24.944;2023-07-16T07:58:57;99808.13;;;32.17;45.78
7376;BME280;3728;42.266;24.944;2023-07-16T08:01:24;99804.22;;;32.52;44.42
7376;BME280;3728;42.266;24.944;2023-07-16T08:03:53;99798.44;;;32.93;44.12
7376;BME280;3728;42.266;24.944;2023-07-16T08:06:21;99800.13;;;32.69;44.01
7376;BME280;3728;42.266;24.944;2023-07-16T08:08:49;99801.72;;;33.10;41.25
7376;BME280;3728;42.266;24.944;2023-07-16T08:11:17;99801.81;;;32.54;43.99
7376;BME280;3728;42.266;24.944;2023-07-16T08:13:46;99800.03;;;32.60;43.75
7376;BME280;3728;42.266;24.944;2023-07-16T08:16:16;99804.34;;;33.23;41.85
7376;BME280;3728;42.266;24.944;2023-07-16T08:18:44;99814.22;;;33.07;41.77
7376;BME280;3728;42.266;24.944;2023-07-16T08:21:12;99805.03;;;32.83;42.48
7376;BME280;3728;42.266;24.944;2023-07-16T08:23:49;99810.50;;;32.92;42.08
7376;BME280;3728;42.266;24.944;2023-07-16T08:26:18;99803.50;;;33.04;42.23
7376;BME280;3728;42.266;24.944;2023-07-16T08:28:47;99803.31;;;33.29;40.85
7376;BME280;3728;42.266;24.944;2023-07-16T08:31:17;99808.56;;;33.54;40.31
7376;BME280;3728;42.266;24.944;2023-07-16T08:33:45;99795.09;;;33.51;40.80
7376;BME280;3728;42.266;24.944;2023-07-16T08:36:12;99800.50;;;33.42;41.40
7376;BME280;3728;42.266;24.944;2023-07-16T08:38:40;99795.00;;;33.24;42.55
7376;BME280;3728;42.266;24.944;2023-07-16T08:41:11;99792.94;;;33.77;40.37
7376;BME280;3728;42.266;24.944;2023-07-16T08:43:41;99792.19;;;33.85;39.66
7376;BME280;3728;42.266;24.944;2023-07-16T08:46:09;99788.38;;;33.73;40.04
7376;BME280;3728;42.266;24.944;2023-07-16T08:48:37;99791.47;;;34.48;38.84
7376;BME280;3728;42.266;24.944;2023-07-16T08:51:05;99785.13;;;34.42;38.00
7376;BME280;3728;42.266;24.944;2023-07-16T08:53:34;99784.47;;;33.74;39.78
7376;BME280;3728;42.266;24.944;2023-07-16T08:56:04;99775.75;;;33.40;41.19
7376;BME280;3728;42.266;24.944;2023-07-16T08:58:32;99780.56;;;34.03;39.70
7376;BME280;3728;42.266;24.944;2023-07-16T09:01:00;99782.56;;;34.48;38.31
7376;BME280;3728;42.266;24.944;2023-07-16T09:03:28;99778.47;;;34.16;40.61
7376;BME280;3728;42.266;24.944;2023-07-16T09:05:56;99773.50;;;34.05;39.59
7376;BME280;3728;42.266;24.944;2023-07-16T09:08:24;99773.22;;;34.21;39.52
7376;BME280;3728;42.266;24.944;2023-07-16T09:10:56;99767.59;;;34.43;38.78
7376;BME280;3728;42.266;24.944;2023-07-16T09:13:29;99768.63;;;34.73;38.50
7376;BME280;3728;42.266;24.944;2023-07-16T09:15:58;99779.75;;;35.02;38.46
7376;BME280;3728;42.266;24.944;2023-07-16T09:18:28;99775.22;;;35.32;38.37
7376;BME280;3728;42.266;24.944;2023-07-16T09:21:00;99768.88;;;35.02;38.04
7376;BME280;3728;42.266;24.944;2023-07-16T09:23:30;99770.16;;;34.56;39.78
7376;BME280;3728;42.266;24.944;2023-07-16T09:25:59;99772.06;;;34.82;39.02
7376;BME280;3728;42.266;24.944;2023-07-16T09:28:33;99768.69;;;35.38;37.78
7376;BME280;3728;42.266;24.944;2023-07-16T09:31:05;99765.06;;;35.09;38.46
7376;BME280;3728;42.266;24.944;2023-07-16T09:33:34;99764.41;;;35.46;37.25
7376;BME280;3728;42.266;24.944;2023-07-16T09:36:03;99760.50;;;35.38;39.09
7376;BME280;3728;42.266;24.944;2023-07-16T09:38:34;99769.56;;;35.53;37.75
7376;BME280;3728;42.266;24.944;2023-07-16T09:41:02;99769.28;;;35.99;36.60
7376;BME280;3728;42.266;24.944;2023-07-16T09:43:35;99769.59;;;35.92;38.08
7376;BME280;3728;42.266;24.944;2023-07-16T09:46:02;99764.19;;;35.35;39.16
7376;BME280;3728;42.266;24.944;2023-07-16T09:48:33;99751.16;;;35.07;40.09
7376;BME280;3728;42.266;24.944;2023-07-16T09:51:02;99750.59;;;35.26;38.57
7376;BME280;3728;42.266;24.944;2023-07-16T09:53:32;99749.50;;;35.33;39.04
7376;BME280;3728;42.266;24.944;2023-07-16T09:56:04;99743.72;;;35.40;40.12
7376;BME280;3728;42.266;24.944;2023-07-16T09:58:33;99737.16;;;35.46;38.88
7376;BME280;3728;42.266;24.944;2023-07-16T10:01:01;99739.19;;;35.37;40.51
7376;BME280;3728;42.266;24.944;2023-07-16T10:03:31;99739.66;;;35.35;41.68
7376;BME280;3728;42.266;24.944;2023-07-16T10:06:07;99728.50;;;35.24;42.07
7376;BME280;3728;42.266;24.944;2023-07-16T10:08:36;99726.34;;;35.37;42.67
7376;BME280;3728;42.266;24.944;2023-07-16T10:11:04;99726.63;;;35.39;42.97
7376;BME280;3728;42.266;24.944;2023-07-16T10:13:41;99725.03;;;35.47;42.55
7376;BME280;3728;42.266;24.944;2023-07-16T10:16:20;99721.28;;;35.68;41.70
7376;BME280;3728;42.266;24.944;2023-07-16T10:18:54;99723.50;;;35.79;40.96
7376;BME280;3728;42.266;24.944;2023-07-16T10:21:25;99718.13;;;35.70;41.70
7376;BME280;3728;42.266;24.944;2023-07-16T10:23:57;99717.78;;;35.92;41.35
7376;BME280;3728;42.266;24.944;2023-07-16T10:26:29;99712.91;;;35.57;41.96
7376;BME280;3728;42.266;24.944;2023-07-16T10:28:58;99708.94;;;35.82;42.16
7376;BME280;3728;42.266;24.944;2023-07-16T10:31:26;99711.63;;;35.67;42.50
7376;BME280;3728;42.266;24.944;2023-07-16T10:34:02;99708.53;;;35.98;41.30
7376;BME280;3728;42.266;24.944;2023-07-16T10:36:38;99701.31;;;35.86;41.15
7376;BME280;3728;42.266;24.944;2023-07-16T10:39:08;99697.53;;;36.22;41.04
7376;BME280;3728;42.266;24.944;2023-07-16T10:41:35;99695.28;;;36.06;40.25
7376;BME280;3728;42.266;24.944;2023-07-16T10:44:14;99692.06;;;36.07;41.01
7376;BME280;3728;42.266;24.944;2023-07-16T10:46:47;99689.00;;;35.91;41.39
7376;BME280;3728;42.266;24.944;2023-07-16T10:49:41;99695.66;;;36.28;41.08
7376;BME280;3728;42.266;24.944;2023-07-16T10:52:10;99688.69;;;36.27;40.76
7376;BME280;3728;42.266;24.944;2023-07-16T10:54:39;99681.72;;;36.26;40.20
7376;BME280;3728;42.266;24.944;2023-07-16T10:57:11;99677.13;;;36.32;39.67
7376;BME280;3728;42.266;24.944;2023-07-16T10:59:42;99676.75;;;36.54;39.00
7376;BME280;3728;42.266;24.944;2023-07-16T11:02:14;99672.16;;;36.45;40.24
7376;BME280;3728;42.266;24.944;2023-07-16T11:04:44;99666.88;;;36.56;40.30
7376;BME280;3728;42.266;24.944;2023-07-16T11:07:14;99661.13;;;36.89;38.85
7376;BME280;3728;42.266;24.944;2023-07-16T11:09:50;99663.00;;;37.12;38.77
7376;BME280;3728;42.266;24.944;2023-07-16T11:12:22;99654.81;;;37.12;37.92
7376;BME280;3728;42.266;24.944;2023-07-16T11:14:53;99659.22;;;37.30;37.89
7376;BME280;3728;42.266;24.944;2023-07-16T11:17:24;99656.78;;;37.12;38.14
7376;BME280;3728;42.266;24.944;2023-07-16T11:19:53;99655.78;;;36.94;38.16
7376;BME280;3728;42.266;24.944;2023-07-16T11:22:27;99649.75;;;36.90;38.98
7376;BME280;3728;42.266;24.944;2023-07-16T11:24:57;99651.09;;;36.95;39.63
7376;BME280;3728;42.266;24.944;2023-07-16T11:27:32;99654.03;;;37.32;37.45
7376;BME280;3728;42.266;24.944;2023-07-16T11:30:05;99648.16;;;36.98;37.85
7376;BME280;3728;42.266;24.944;2023-07-16T11:32:47;99643.31;;;37.08;37.42
7376;BME280;3728;42.266;24.944;2023-07-16T11:35:40;99647.25;;;37.42;37.75
7376;BME280;3728;42.266;24.944;2023-07-16T11:38:10;99645.78;;;37.46;36.47
7376;BME280;3728;42.266;24.944;2023-07-16T11:40:40;99644.00;;;37.63;37.66
7376;BME280;3728;42.266;24.944;2023-07-16T11:43:10;99637.06;;;37.42;37.82
7376;BME280;3728;42.266;24.944;2023-07-16T11:45:40;99641.03;;;37.67;37.06
7376;BME280;3728;42.266;24.944;2023-07-16T11:48:13;99633.38;;;37.71;36.77
7376;BME280;3728;42.266;24.944;2023-07-16T11:50:52;99635.00;;;37.37;37.34
7376;BME280;3728;42.266;24.944;2023-07-16T11:53:20;99638.34;;;37.47;37.73
7376;BME280;3728;42.266;24.944;2023-07-16T11:55:51;99630.09;;;37.67;36.21
7376;BME280;3728;42.266;24.944;2023-07-16T11:58:23;99624.75;;;37.78;36.85
7376;BME280;3728;42.266;24.944;2023-07-16T12:00:51;99626.66;;;37.92;36.41
7376;BME280;3728;42.266;24.944;2023-07-16T12:03:20;99627.53;;;38.04;36.18
7376;BME280;3728;42.266;24.944;2023-07-16T12:05:49;99626.25;;;37.79;36.26
7376;BME280;3728;42.266;24.944;2023-07-16T12:08:19;99631.88;;;38.21;34.76
7376;BME280;3728;42.266;24.944;2023-07-16T12:10:49;99619.59;;;38.11;35.18
7376;BME280;3728;42.266;24.944;2023-07-16T12:13:18;99623.50;;;37.99;36.32
7376;BME280;3728;42.266;24.944;2023-07-16T12:15:47;99625.81;;;38.06;35.55
7376;BME280;3728;42.266;24.944;2023-07-16T12:18:16;99626.50;;;38.32;35.00
7376;BME280;3728;42.266;24.944;2023-07-16T12:20:43;99622.03;;;38.29;34.82
7376;BME280;3728;42.266;24.944;2023-07-16T12:23:15;99614.41;;;38.45;35.73
7376;BME280;3728;42.266;24.944;2023-07-16T12:25:44;99621.97;;;38.55;35.38
7376;BME280;3728;42.266;24.944;2023-07-16T12:28:12;99615.34;;;38.36;34.04
7376;BME280;3728;42.266;24.944;2023-07-16T12:30:40;99614.13;;;38.11;34.48
7376;BME280;3728;42.266;24.944;2023-07-16T12:33:10;99613.19;;;38.51;34.34
7376;BME280;3728;42.266;24.944;2023-07-16T12:35:39;99609.72;;;38.51;34.39
7376;BME280;3728;42.266;24.944;2023-07-16T12:38:06;99604.94;;;38.77;34.20
7376;BME280;3728;42.266;24.944;2023-07-16T12:40:34;99612.41;;;38.82;33.54
7376;BME280;3728;42.266;24.944;2023-07-16T12:43:06;99602.63;;;38.70;32.74
7376;BME280;3728;42.266;24.944;2023-07-16T12:45:34;99608.25;;;38.92;33.39
7376;BME280;3728;42.266;24.944;2023-07-16T12:48:02;99605.28;;;39.01;32.79
7376;BME280;3728;42.266;24.944;2023-07-16T12:50:31;99606.13;;;39.18;32.37
7376;BME280;3728;42.266;24.944;2023-07-16T12:52:58;99601.88;;;39.17;32.80
7376;BME280;3728;42.266;24.944;2023-07-16T12:55:26;99604.59;;;39.12;32.78
7376;BME280;3728;42.266;24.944;2023-07-16T12:57:55;99614.13;;;39.27;33.15
7376;BME280;3728;42.266;24.944;2023-07-16T13:00:26;99604.56;;;39.06;33.13
7376;BME280;3728;42.266;24.944;2023-07-16T13:02:55;99596.06;;;38.93;33.09
7376;BME280;3728;42.266;24.944;2023-07-16T13:05:25;99601.72;;;39.43;32.00
7376;BME280;3728;42.266;24.944;2023-07-16T13:07:52;99595.69;;;39.28;32.05
7376;BME280;3728;42.266;24.944;2023-07-16T13:10:21;99588.84;;;39.71;31.22
7376;BME280;3728;42.266;24.944;2023-07-16T13:12:50;99592.50;;;39.46;31.14
7376;BME280;3728;42.266;24.944;2023-07-16T13:15:23;99596.31;;;39.76;31.79
7376;BME280;3728;42.266;24.944;2023-07-16T13:18:02;99591.31;;;39.69;32.08
7376;BME280;3728;42.266;24.944;2023-07-16T13:20:33;99584.25;;;39.35;31.84
7376;BME280;3728;42.266;24.944;2023-07-16T13:23:01;99590.34;;;39.78;30.23
7376;BME280;3728;42.266;24.944;2023-07-16T13:25:30;99590.28;;;39.50;31.57
7376;BME280;3728;42.266;24.944;2023-07-16T13:27:58;99579.81;;;39.43;31.91